sensor_id;sensor_type;location;lat;lon;timestamp;P1;durP1;ratioP1;P2;durP2;ratioP2
54139;SDS011;40046;53.254;5.900;2023-04-24T00:01:37;6.07;;;3.88;;
54139;SDS011;40046;53.254;5.900;2023-04-24T00:04:05;7.00;;;3.70;;
54139;SDS011;40046;53.254;5.900;2023-04-24T00:06:32;7.03;;;4.20;;
54139;SDS011;40046;53.254;5.900;2023-04-24T00:08:59;4.82;;;3.33;;
54139;SDS011;40046;53.254;5.900;2023-04-24T00:11:26;5.63;;;4.40;;
54139;SDS011;40046;53.254;5.900;2023-04-24T00:13:52;6.70;;;4.38;;
54139;SDS011;40046;53.254;5.900;2023-04-24T00:16:18;6.85;;;5.20;;
54139;SDS011;40046;53.254;5.900;2023-04-24T00:18:45;7.38;;;4.60;;
54139;SDS011;40046;53.254;5.900;2023-04-24T00:21:13;7.97;;;4.53;;
54139;SDS011;40046;53.254;5.900;2023-04-24T00:23:40;5.22;;;4.53;;
54139;SDS011;40046;53.254;5.900;2023-04-24T00:26:06;6.65;;;4.50;;
54139;SDS011;40046;53.254;5.900;2023-04-24T00:28:32;8.63;;;4.47;;
54139;SDS011;40046;53.254;5.900;2023-04-24T00:30:58;7.07;;;4.47;;
54139;SDS011;40046;53.254;5.900;2023-04-24T00:33:24;7.10;;;4.53;;
54139;SDS011;40046;53.254;5.900;2023-04-24T00:35:50;7.25;;;5.18;;
54139;SDS011;40046;53.254;5.900;2023-04-24T00:38:16;6.43;;;4.60;;
54139;SDS011;40046;53.254;5.900;2023-04-24T00:40:43;5.88;;;4.95;;
54139;SDS011;40046;53.254;5.900;2023-04-24T00:43:09;7.30;;;5.63;;
54139;SDS011;40046;53.254;5.900;2023-04-24T00:45:35;8.35;;;5.05;;
54139;SDS011;40046;53.254;5.900;2023-04-24T00:48:02;9.30;;;5.32;;
54139;SDS011;40046;53.254;5.900;2023-04-24T00:50:29;9.57;;;5.10;;
54139;SDS011;40046;53.254;5.900;2023-04-24T00:52:55;6.78;;;5.43;;
54139;SDS011;40046;53.254;5.900;2023-04-24T00:55:22;6.53;;;5.45;;
54139;SDS011;40046;53.254;5.900;2023-04-24T00:57:48;6.60;;;5.30;;
54139;SDS011;40046;53.254;5.900;2023-04-24T01:00:15;8.07;;;6.05;;
54139;SDS011;40046;53.254;5.900;2023-04-24T01:02:42;7.85;;;6.07;;
54139;SDS011;40046;53.254;5.900;2023-04-24T01:05:10;5.50;;;4.47;;
54139;SDS011;40046;53.254;5.900;2023-04-24T01:07:37;7.38;;;5.57;;
54139;SDS011;40046;53.254;5.900;2023-04-24T01:10:04;7.30;;;5.45;;
54139;SDS011;40046;53.254;5.900;2023-04-24T01:12:30;6.15;;;5.45;;
54139;SDS011;40046;53.254;5.900;2023-04-24T01:14:56;7.32;;;6.30;;
54139;SDS011;40046;53.254;5.900;2023-04-24T01:17:23;7.38;;;5.63;;
54139;SDS011;40046;53.254;5.900;2023-04-24T01:19:49;6.40;;;5.30;;
54139;SDS011;40046;53.254;5.900;2023-04-24T01:22:18;7.15;;;5.10;;
54139;SDS011;40046;53.254;5.900;2023-04-24T01:24:46;7.70;;;6.28;;
54139;SDS011;40046;53.254;5.900;2023-04-24T01:27:12;8.35;;;5.90;;
54139;SDS011;40046;53.254;5.900;2023-04-24T01:29:38;6.07;;;5.47;;
54139;SDS011;40046;53.254;5.900;2023-04-24T01:32:04;7.13;;;5.70;;
54139;SDS011;40046;53.254;5.900;2023-04-24T01:34:31;7.65;;;5.90;;
54139;SDS011;40046;53.254;5.900;2023-04-24T01:36:58;8.77;;;6.22;;
54139;SDS011;40046;53.254;5.900;2023-04-24T01:39:24;6.10;;;5.50;;
54139;SDS011;40046;53.254;5.900;2023-04-24T01:41:52;8.50;;;6.05;;
54139;SDS011;40046;53.254;5.900;2023-04-24T01:44:18;9.50;;;6.38;;
54139;SDS011;40046;53.254;5.900;2023-04-24T01:46:45;8.27;;;6.65;;
54139;SDS011;40046;53.254;5.900;2023-04-24T01:49:11;6.55;;;5.85;;
54139;SDS011;40046;53.254;5.900;2023-04-24T01:51:37;7.18;;;6.47;;
54139;SDS011;40046;53.254;5.900;2023-04-24T01:54:03;8.60;;;7.00;;
54139;SDS011;40046;53.254;5.900;2023-04-24T01:56:30;7.93;;;6.63;;
54139;SDS011;40046;53.254;5.900;2023-04-24T01:58:59;8.43;;;7.53;;
54139;SDS011;40046;53.254;5.900;2023-04-24T02:01:25;8.32;;;7.30;;
54139;SDS011;40046;53.254;5.900;2023-04-24T02:03:51;7.82;;;7.03;;
54139;SDS011;40046;53.254;5.900;2023-04-24T02:06:18;11.07;;;7.63;;
54139;SDS011;40046;53.254;5.900;2023-04-24T02:08:44;7.80;;;7.00;;
54139;SDS011;40046;53.254;5.900;2023-04-24T02:11:10;7.93;;;7.13;;
54139;SDS011;40046;53.254;5.900;2023-04-24T02:13:36;8.88;;;7.97;;
54139;SDS011;40046;53.254;5.900;2023-04-24T02:16:02;7.35;;;6.65;;
54139;SDS011;40046;53.254;5.900;2023-04-24T02:18:29;9.80;;;7.88;;
54139;SDS011;40046;53.254;5.900;2023-04-24T02:20:56;7.90;;;7.00;;
54139;SDS011;40046;53.254;5.900;2023-04-24T02:23:22;7.70;;;6.90;;
54139;SDS011;40046;53.254;5.900;2023-04-24T02:25:48;11.18;;;7.53;;
54139;SDS011;40046;53.254;5.900;2023-04-24T02:28:16;8.02;;;7.22;;
54139;SDS011;40046;53.254;5.900;2023-04-24T02:30:42;8.50;;;7.35;;
54139;SDS011;40046;53.254;5.900;2023-04-24T02:33:08;10.02;;;7.55;;
54139;SDS011;40046;53.254;5.900;2023-04-24T02:35:35;8.23;;;7.18;;
54139;SDS011;40046;53.254;5.900;2023-04-24T02:38:01;9.25;;;7.28;;
54139;SDS011;40046;53.254;5.900;2023-04-24T02:40:28;10.15;;;7.30;;
54139;SDS011;40046;53.254;5.900;2023-04-24T02:42:54;9.77;;;7.53;;
54139;SDS011;40046;53.254;5.900;2023-04-24T02:45:20;11.40;;;7.97;;
54139;SDS011;40046;53.254;5.900;2023-04-24T02:47:47;14.80;;;8.13;;
54139;SDS011;40046;53.254;5.900;2023-04-24T02:50:13;10.63;;;6.82;;
54139;SDS011;40046;53.254;5.900;2023-04-24T02:52:39;6.22;;;5.30;;
54139;SDS011;40046;53.254;5.900;2023-04-24T02:55:05;6.03;;;4.13;;
54139;SDS011;40046;53.254;5.900;2023-04-24T02:57:33;5.93;;;4.15;;
54139;SDS011;40046;53.254;5.900;2023-04-24T02:59:59;6.43;;;3.45;;
54139;SDS011;40046;53.254;5.900;2023-04-24T03:02:25;3.33;;;1.50;;
54139;SDS011;40046;53.254;5.900;2023-04-24T03:04:51;2.72;;;1.55;;
54139;SDS011;40046;53.254;5.900;2023-04-24T03:07:19;2.85;;;1.23;;
54139;SDS011;40046;53.254;5.900;2023-04-24T03:09:46;2.05;;;1.00;;
54139;SDS011;40046;53.254;5.900;2023-04-24T03:12:14;2.17;;;0.80;;
54139;SDS011;40046;53.254;5.900;2023-04-24T03:14:42;2.08;;;0.80;;
54139;SDS011;40046;53.254;5.900;2023-04-24T03:17:09;2.90;;;0.90;;
54139;SDS011;40046;53.254;5.900;2023-04-24T03:19:35;2.53;;;1.15;;
54139;SDS011;40046;53.254;5.900;2023-04-24T03:22:07;2.35;;;0.95;;
54139;SDS011;40046;53.254;5.900;2023-04-24T03:24:35;3.88;;;0.98;;
54139;SDS011;40046;53.254;5.900;2023-04-24T03:27:01;2.13;;;1.17;;
54139;SDS011;40046;53.254;5.900;2023-04-24T03:29:54;3.90;;;0.85;;
54139;SDS011;40046;53.254;5.900;2023-04-24T03:32:30;2.58;;;0.80;;
54139;SDS011;40046;53.254;5.900;2023-04-24T03:34:57;4.38;;;0.80;;
54139;SDS011;40046;53.254;5.900;2023-04-24T03:37:24;2.63;;;0.90;;
54139;SDS011;40046;53.254;5.900;2023-04-24T03:40:01;3.85;;;1.60;;
54139;SDS011;40046;53.254;5.900;2023-04-24T03:42:28;2.50;;;1.10;;
54139;SDS011;40046;53.254;5.900;2023-04-24T03:44:55;3.78;;;1.50;;
54139;SDS011;40046;53.254;5.900;2023-04-24T03:47:26;2.17;;;1.30;;
54139;SDS011;40046;53.254;5.900;2023-04-24T03:49:55;3.10;;;1.55;;
54139;SDS011;40046;53.254;5.900;2023-04-24T03:52:21;3.15;;;1.85;;
54139;SDS011;40046;53.254;5.900;2023-04-24T03:54:47;3.45;;;1.80;;
54139;SDS011;40046;53.254;5.900;2023-04-24T03:57:14;3.40;;;2.05;;
54139;SDS011;40046;53.254;5.900;2023-04-24T03:59:51;4.35;;;2.22;;
54139;SDS011;40046;53.254;5.900;2023-04-24T04:02:18;4.68;;;2.28;;
54139;SDS011;40046;53.254;5.900;2023-04-24T04:04:44;2.40;;;1.10;;
54139;SDS011;40046;53.254;5.900;2023-04-24T04:07:11;2.88;;;1.08;;
54139;SDS011;40046;53.254;5.900;2023-04-24T04:09:38;3.10;;;1.10;;
54139;SDS011;40046;53.254;5.900;2023-04-24T04:12:04;3.17;;;0.90;;
54139;SDS011;40046;53.254;5.900;2023-04-24T04:14:32;4.03;;;1.73;;
54139;SDS011;40046;53.254;5.900;2023-04-24T04:16:58;6.68;;;1.98;;
54139;SDS011;40046;53.254;5.900;2023-04-24T04:19:25;5.22;;;2.42;;
54139;SDS011;40046;53.254;5.900;2023-04-24T04:21:51;6.25;;;3.55;;
54139;SDS011;40046;53.254;5.900;2023-04-24T04:24:30;9.38;;;5.57;;
54139;SDS011;40046;53.254;5.900;2023-04-24T04:26:58;7.13;;;5.05;;
54139;SDS011;40046;53.254;5.900;2023-04-24T04:29:28;11.60;;;5.50;;
54139;SDS011;40046;53.254;5.900;2023-04-24T04:31:54;9.45;;;5.00;;
54139;SDS011;40046;53.254;5.900;2023-04-24T04:34:21;7.60;;;4.53;;
54139;SDS011;40046;53.254;5.900;2023-04-24T04:36:48;7.05;;;4.30;;
54139;SDS011;40046;53.254;5.900;2023-04-24T04:39:29;7.50;;;5.07;;
54139;SDS011;40046;53.254;5.900;2023-04-24T04:41:59;8.55;;;5.22;;
54139;SDS011;40046;53.254;5.900;2023-04-24T04:44:32;9.90;;;5.70;;
54139;SDS011;40046;53.254;5.900;2023-04-24T04:47:01;12.82;;;5.38;;
54139;SDS011;40046;53.254;5.900;2023-04-24T04:49:32;6.90;;;4.15;;
54139;SDS011;40046;53.254;5.900;2023-04-24T04:51:59;9.98;;;4.22;;
54139;SDS011;40046;53.254;5.900;2023-04-24T04:54:26;9.68;;;4.50;;
54139;SDS011;40046;53.254;5.900;2023-04-24T04:56:53;7.45;;;5.03;;
54139;SDS011;40046;53.254;5.900;2023-04-24T04:59:20;8.98;;;4.93;;
54139;SDS011;40046;53.254;5.900;2023-04-24T05:01:49;12.70;;;6.07;;
54139;SDS011;40046;53.254;5.900;2023-04-24T05:04:16;18.27;;;12.30;;
54139;SDS011;40046;53.254;5.900;2023-04-24T05:06:43;9.77;;;7.53;;
54139;SDS011;40046;53.254;5.900;2023-04-24T05:09:09;11.63;;;7.28;;
54139;SDS011;40046;53.254;5.900;2023-04-24T05:14:09;7.28;;;4.30;;
54139;SDS011;40046;53.254;5.900;2023-04-24T05:16:37;11.90;;;4.47;;
54139;SDS011;40046;53.254;5.900;2023-04-24T05:19:04;4.90;;;3.17;;
54139;SDS011;40046;53.254;5.900;2023-04-24T05:21:35;6.30;;;3.40;;
54139;SDS011;40046;53.254;5.900;2023-04-24T05:24:01;5.20;;;2.42;;
54139;SDS011;40046;53.254;5.900;2023-04-24T05:27:03;5.95;;;3.20;;
54139;SDS011;40046;53.254;5.900;2023-04-24T05:29:37;5.82;;;2.78;;
54139;SDS011;40046;53.254;5.900;2023-04-24T05:32:04;6.63;;;3.20;;
54139;SDS011;40046;53.254;5.900;2023-04-24T05:34:31;6.18;;;2.55;;
54139;SDS011;40046;53.254;5.900;2023-04-24T05:36:57;7.18;;;2.10;;
54139;SDS011;40046;53.254;5.900;2023-04-24T05:39:24;4.82;;;1.42;;
54139;SDS011;40046;53.254;5.900;2023-04-24T05:41:51;7.80;;;2.20;;
54139;SDS011;40046;53.254;5.900;2023-04-24T05:44:17;4.55;;;1.63;;
54139;SDS011;40046;53.254;5.900;2023-04-24T05:46:43;5.15;;;1.58;;
54139;SDS011;40046;53.254;5.900;2023-04-24T05:49:10;7.68;;;1.80;;
54139;SDS011;40046;53.254;5.900;2023-04-24T05:51:36;3.28;;;1.50;;
54139;SDS011;40046;53.254;5.900;2023-04-24T05:54:04;5.75;;;1.15;;
54139;SDS011;40046;53.254;5.900;2023-04-24T05:56:31;6.65;;;2.38;;
54139;SDS011;40046;53.254;5.900;2023-04-24T05:58:59;7.20;;;1.15;;
54139;SDS011;40046;53.254;5.900;2023-04-24T06:01:25;5.63;;;2.10;;
54139;SDS011;40046;53.254;5.900;2023-04-24T06:04:05;5.43;;;1.52;;
54139;SDS011;40046;53.254;5.900;2023-04-24T06:06:31;9.60;;;2.72;;
54139;SDS011;40046;53.254;5.900;2023-04-24T06:08:58;6.47;;;3.67;;
54139;SDS011;40046;53.254;5.900;2023-04-24T06:11:25;4.15;;;2.15;;
54139;SDS011;40046;53.254;5.900;2023-04-24T06:13:52;5.43;;;2.40;;
54139;SDS011;40046;53.254;5.900;2023-04-24T06:16:36;6.28;;;3.08;;
54139;SDS011;40046;53.254;5.900;2023-04-24T06:19:12;8.23;;;2.55;;
54139;SDS011;40046;53.254;5.900;2023-04-24T06:21:38;11.82;;;3.30;;
54139;SDS011;40046;53.254;5.900;2023-04-24T06:24:04;5.57;;;2.90;;
54139;SDS011;40046;53.254;5.900;2023-04-24T06:26:30;6.72;;;2.92;;
54139;SDS011;40046;53.254;5.900;2023-04-24T06:28:57;8.60;;;1.98;;
54139;SDS011;40046;53.254;5.900;2023-04-24T06:31:24;8.73;;;2.67;;
54139;SDS011;40046;53.254;5.900;2023-04-24T06:33:50;3.45;;;1.80;;
54139;SDS011;40046;53.254;5.900;2023-04-24T06:36:16;9.20;;;3.58;;
54139;SDS011;40046;53.254;5.900;2023-04-24T06:38:43;10.05;;;4.40;;
54139;SDS011;40046;53.254;5.900;2023-04-24T06:41:09;10.45;;;6.43;;
54139;SDS011;40046;53.254;5.900;2023-04-24T06:43:35;11.43;;;5.72;;
54139;SDS011;40046;53.254;5.900;2023-04-24T06:46:02;11.70;;;5.72;;
54139;SDS011;40046;53.254;5.900;2023-04-24T06:48:28;13.80;;;6.88;;
54139;SDS011;40046;53.254;5.900;2023-04-24T06:50:54;16.83;;;8.88;;
54139;SDS011;40046;53.254;5.900;2023-04-24T06:53:20;18.77;;;10.88;;
54139;SDS011;40046;53.254;5.900;2023-04-24T06:55:47;19.55;;;12.07;;
54139;SDS011;40046;53.254;5.900;2023-04-24T06:58:13;18.40;;;10.20;;
54139;SDS011;40046;53.254;5.900;2023-04-24T07:00:40;14.88;;;10.32;;
54139;SDS011;40046;53.254;5.900;2023-04-24T07:03:06;18.15;;;9.95;;
54139;SDS011;40046;53.254;5.900;2023-04-24T07:05:32;15.52;;;10.32;;
54139;SDS011;40046;53.254;5.900;2023-04-24T07:08:02;16.48;;;8.73;;
54139;SDS011;40046;53.254;5.900;2023-04-24T07:10:29;15.05;;;8.73;;
54139;SDS011;40046;53.254;5.900;2023-04-24T07:12:55;14.63;;;9.35;;
54139;SDS011;40046;53.254;5.900;2023-04-24T07:15:22;19.95;;;10.85;;
54139;SDS011;40046;53.254;5.900;2023-04-24T07:17:51;17.52;;;10.40;;
54139;SDS011;40046;53.254;5.900;2023-04-24T07:20:17;16.25;;;10.63;;
54139;SDS011;40046;53.254;5.900;2023-04-24T07:22:43;17.75;;;10.32;;
54139;SDS011;40046;53.254;5.900;2023-04-24T07:25:09;15.48;;;10.75;;
54139;SDS011;40046;53.254;5.900;2023-04-24T07:27:36;17.20;;;10.07;;
54139;SDS011;40046;53.254;5.900;2023-04-24T07:30:03;20.23;;;11.27;;
54139;SDS011;40046;53.254;5.900;2023-04-24T07:32:29;16.75;;;10.20;;
54139;SDS011;40046;53.254;5.900;2023-04-24T07:34:55;19.92;;;11.32;;
54139;SDS011;40046;53.254;5.900;2023-04-24T07:37:22;22.67;;;11.90;;
54139;SDS011;40046;53.254;5.900;2023-04-24T07:39:48;13.95;;;10.90;;
54139;SDS011;40046;53.254;5.900;2023-04-24T07:42:15;18.15;;;10.48;;
54139;SDS011;40046;53.254;5.900;2023-04-24T07:44:41;13.00;;;8.70;;
54139;SDS011;40046;53.254;5.900;2023-04-24T07:47:07;16.23;;;9.52;;
54139;SDS011;40046;53.254;5.900;2023-04-24T07:49:33;13.50;;;9.80;;
54139;SDS011;40046;53.254;5.900;2023-04-24T07:52:00;15.25;;;8.43;;
54139;SDS011;40046;53.254;5.900;2023-04-24T07:54:27;14.00;;;8.45;;
54139;SDS011;40046;53.254;5.900;2023-04-24T07:56:54;11.07;;;7.25;;
54139;SDS011;40046;53.254;5.900;2023-04-24T07:59:20;16.92;;;6.13;;
54139;SDS011;40046;53.254;5.900;2023-04-24T08:01:46;8.82;;;5.85;;
54139;SDS011;40046;53.254;5.900;2023-04-24T08:04:12;11.00;;;5.32;;
54139;SDS011;40046;53.254;5.900;2023-04-24T08:06:38;10.48;;;5.75;;
54139;SDS011;40046;53.254;5.900;2023-04-24T08:09:04;11.45;;;5.18;;
54139;SDS011;40046;53.254;5.900;2023-04-24T08:11:31;12.70;;;6.30;;
54139;SDS011;40046;53.254;5.900;2023-04-24T08:13:57;11.00;;;5.95;;
54139;SDS011;40046;53.254;5.900;2023-04-24T08:16:24;10.63;;;5.72;;
54139;SDS011;40046;53.254;5.900;2023-04-24T08:18:50;9.75;;;5.00;;
54139;SDS011;40046;53.254;5.900;2023-04-24T08:21:16;9.93;;;5.05;;
54139;SDS011;40046;53.254;5.900;2023-04-24T08:23:44;10.43;;;4.95;;
54139;SDS011;40046;53.254;5.900;2023-04-24T08:26:11;10.98;;;4.63;;
54139;SDS011;40046;53.254;5.900;2023-04-24T08:28:37;15.23;;;6.05;;
54139;SDS011;40046;53.254;5.900;2023-04-24T08:31:03;12.35;;;6.47;;
54139;SDS011;40046;53.254;5.900;2023-04-24T08:33:29;16.55;;;5.55;;
54139;SDS011;40046;53.254;5.900;2023-04-24T08:36:06;14.07;;;4.90;;
54139;SDS011;40046;53.254;5.900;2023-04-24T08:38:33;14.18;;;5.97;;
54139;SDS011;40046;53.254;5.900;2023-04-24T08:41:00;16.15;;;5.47;;
54139;SDS011;40046;53.254;5.900;2023-04-24T08:43:26;12.77;;;4.90;;
54139;SDS011;40046;53.254;5.900;2023-04-24T08:45:54;11.05;;;4.88;;
54139;SDS011;40046;53.254;5.900;2023-04-24T08:48:22;12.45;;;4.18;;
54139;SDS011;40046;53.254;5.900;2023-04-24T08:50:49;10.50;;;3.88;;
54139;SDS011;40046;53.254;5.900;2023-04-24T08:53:16;10.18;;;3.28;;
54139;SDS011;40046;53.254;5.900;2023-04-24T08:55:43;9.70;;;3.40;;
54139;SDS011;40046;53.254;5.900;2023-04-24T08:58:10;7.30;;;2.80;;
54139;SDS011;40046;53.254;5.900;2023-04-24T09:00:38;11.52;;;2.88;;
54139;SDS011;40046;53.254;5.900;2023-04-24T09:03:05;10.02;;;2.58;;
54139;SDS011;40046;53.254;5.900;2023-04-24T09:05:31;7.90;;;2.38;;
54139;SDS011;40046;53.254;5.900;2023-04-24T09:07:58;6.60;;;2.00;;
54139;SDS011;40046;53.254;5.900;2023-04-24T09:10:25;6.63;;;2.35;;
54139;SDS011;40046;53.254;5.900;2023-04-24T09:12:52;6.95;;;2.60;;
54139;SDS011;40046;53.254;5.900;2023-04-24T09:15:20;9.25;;;2.92;;
54139;SDS011;40046;53.254;5.900;2023-04-24T09:17:46;16.08;;;3.67;;
54139;SDS011;40046;53.254;5.900;2023-04-24T09:20:13;9.73;;;3.40;;
54139;SDS011;40046;53.254;5.900;2023-04-24T09:22:39;14.40;;;4.82;;
54139;SDS011;40046;53.254;5.900;2023-04-24T09:25:06;11.55;;;3.58;;
54139;SDS011;40046;53.254;5.900;2023-04-24T09:27:34;15.18;;;4.47;;
54139;SDS011;40046;53.254;5.900;2023-04-24T09:30:00;14.90;;;2.65;;
54139;SDS011;40046;53.254;5.900;2023-04-24T09:32:27;13.20;;;3.28;;
54139;SDS011;40046;53.254;5.900;2023-04-24T09:35:11;12.18;;;2.40;;
54139;SDS011;40046;53.254;5.900;2023-04-24T09:37:39;10.65;;;2.67;;
54139;SDS011;40046;53.254;5.900;2023-04-24T09:40:07;10.00;;;2.95;;
54139;SDS011;40046;53.254;5.900;2023-04-24T09:42:33;9.55;;;3.17;;
54139;SDS011;40046;53.254;5.900;2023-04-24T09:45:00;5.70;;;1.70;;
54139;SDS011;40046;53.254;5.900;2023-04-24T09:47:26;11.50;;;2.80;;
54139;SDS011;40046;53.254;5.900;2023-04-24T09:49:53;14.38;;;2.55;;
54139;SDS011;40046;53.254;5.900;2023-04-24T09:52:23;7.47;;;1.77;;
54139;SDS011;40046;53.254;5.900;2023-04-24T09:54:53;10.90;;;2.88;;
54139;SDS011;40046;53.254;5.900;2023-04-24T09:57:19;8.32;;;2.60;;
54139;SDS011;40046;53.254;5.900;2023-04-24T09:59:45;9.18;;;2.03;;
54139;SDS011;40046;53.254;5.900;2023-04-24T10:02:18;10.55;;;2.67;;
54139;SDS011;40046;53.254;5.900;2023-04-24T10:04:54;12.55;;;2.75;;
54139;SDS011;40046;53.254;5.900;2023-04-24T10:07:21;7.45;;;2.63;;
54139;SDS011;40046;53.254;5.900;2023-04-24T10:09:47;15.82;;;2.97;;
54139;SDS011;40046;53.254;5.900;2023-04-24T10:12:13;8.25;;;1.83;;
54139;SDS011;40046;53.254;5.900;2023-04-24T10:14:40;10.13;;;1.80;;
54139;SDS011;40046;53.254;5.900;2023-04-24T10:17:06;10.63;;;2.67;;
54139;SDS011;40046;53.254;5.900;2023-04-24T10:19:33;6.97;;;1.90;;
54139;SDS011;40046;53.254;5.900;2023-04-24T10:22:00;7.80;;;2.22;;
54139;SDS011;40046;53.254;5.900;2023-04-24T10:24:27;12.18;;;2.08;;
54139;SDS011;40046;53.254;5.900;2023-04-24T10:26:54;14.32;;;3.08;;
54139;SDS011;40046;53.254;5.900;2023-04-24T10:29:22;8.25;;;2.05;;
54139;SDS011;40046;53.254;5.900;2023-04-24T10:31:48;12.25;;;2.58;;
54139;SDS011;40046;53.254;5.900;2023-04-24T10:34:15;11.85;;;2.00;;
54139;SDS011;40046;53.254;5.900;2023-04-24T10:36:42;8.82;;;2.20;;
54139;SDS011;40046;53.254;5.900;2023-04-24T10:39:11;9.55;;;2.42;;
54139;SDS011;40046;53.254;5.900;2023-04-24T10:41:39;14.13;;;2.83;;
54139;SDS011;40046;53.254;5.900;2023-04-24T10:44:06;11.25;;;2.25;;
54139;SDS011;40046;53.254;5.900;2023-04-24T10:46:32;10.18;;;1.83;;
54139;SDS011;40046;53.254;5.900;2023-04-24T10:48:58;7.85;;;1.80;;
54139;SDS011;40046;53.254;5.900;2023-04-24T10:51:26;11.65;;;2.97;;
54139;SDS011;40046;53.254;5.900;2023-04-24T10:54:22;11.15;;;2.33;;
54139;SDS011;40046;53.254;5.900;2023-04-24T10:56:49;7.53;;;1.52;;
54139;SDS011;40046;53.254;5.900;2023-04-24T10:59:25;8.25;;;1.98;;
54139;SDS011;40046;53.254;5.900;2023-04-24T11:01:52;7.40;;;1.13;;
54139;SDS011;40046;53.254;5.900;2023-04-24T11:04:28;8.95;;;2.20;;
54139;SDS011;40046;53.254;5.900;2023-04-24T11:06:55;9.25;;;2.65;;
54139;SDS011;40046;53.254;5.900;2023-04-24T11:09:21;9.10;;;2.58;;
54139;SDS011;40046;53.254;5.900;2023-04-24T11:11:47;11.18;;;2.78;;
54139;SDS011;40046;53.254;5.900;2023-04-24T11:14:14;11.15;;;2.33;;
54139;SDS011;40046;53.254;5.900;2023-04-24T11:16:53;7.38;;;1.92;;
54139;SDS011;40046;53.254;5.900;2023-04-24T11:19:23;16.05;;;2.08;;
54139;SDS011;40046;53.254;5.900;2023-04-24T11:21:59;3.45;;;0.90;;
54139;SDS011;40046;53.254;5.900;2023-04-24T11:26:56;4.07;;;1.10;;
54139;SDS011;40046;53.254;5.900;2023-04-24T11:29:23;6.78;;;1.20;;
54139;SDS011;40046;53.254;5.900;2023-04-24T11:32:16;5.80;;;1.10;;
54139;SDS011;40046;53.254;5.900;2023-04-24T11:34:50;4.32;;;0.80;;
54139;SDS011;40046;53.254;5.900;2023-04-24T11:37:16;6.93;;;1.05;;
54139;SDS011;40046;53.254;5.900;2023-04-24T11:39:43;4.60;;;1.05;;
54139;SDS011;40046;53.254;5.900;2023-04-24T11:42:09;3.75;;;1.33;;
54139;SDS011;40046;53.254;5.900;2023-04-24T11:44:35;7.38;;;1.23;;
54139;SDS011;40046;53.254;5.900;2023-04-24T11:47:05;10.43;;;3.20;;
54139;SDS011;40046;53.254;5.900;2023-04-24T11:49:36;6.28;;;1.20;;
54139;SDS011;40046;53.254;5.900;2023-04-24T11:52:02;9.93;;;1.63;;
54139;SDS011;40046;53.254;5.900;2023-04-24T11:54:28;5.93;;;1.10;;
54139;SDS011;40046;53.254;5.900;2023-04-24T11:56:55;4.50;;;1.30;;
54139;SDS011;40046;53.254;5.900;2023-04-24T11:59:21;6.05;;;1.42;;
54139;SDS011;40046;53.254;5.900;2023-04-24T12:01:48;7.93;;;1.02;;
54139;SDS011;40046;53.254;5.900;2023-04-24T12:04:15;5.13;;;1.20;;
54139;SDS011;40046;53.254;5.900;2023-04-24T12:07:00;8.90;;;1.67;;
54139;SDS011;40046;53.254;5.900;2023-04-24T12:09:27;7.55;;;1.30;;
54139;SDS011;40046;53.254;5.900;2023-04-24T12:11:54;9.70;;;1.67;;
54139;SDS011;40046;53.254;5.900;2023-04-24T12:14:23;7.95;;;1.00;;
54139;SDS011;40046;53.254;5.900;2023-04-24T12:16:50;7.00;;;1.10;;
54139;SDS011;40046;53.254;5.900;2023-04-24T12:19:22;8.80;;;1.52;;
54139;SDS011;40046;53.254;5.900;2023-04-24T12:24:27;6.63;;;0.47;;
54139;SDS011;40046;53.254;5.900;2023-04-24T12:26:53;6.15;;;1.30;;
54139;SDS011;40046;53.254;5.900;2023-04-24T12:29:20;4.18;;;0.93;;
54139;SDS011;40046;53.254;5.900;2023-04-24T12:31:46;2.92;;;0.57;;
54139;SDS011;40046;53.254;5.900;2023-04-24T12:34:19;2.10;;;0.68;;
54139;SDS011;40046;53.254;5.900;2023-04-24T12:36:46;5.22;;;0.90;;
54139;SDS011;40046;53.254;5.900;2023-04-24T12:39:15;2.50;;;0.65;;
54139;SDS011;40046;53.254;5.900;2023-04-24T12:41:50;6.47;;;1.52;;
54139;SDS011;40046;53.254;5.900;2023-04-24T12:44:16;3.63;;;0.77;;
54139;SDS011;40046;53.254;5.900;2023-04-24T12:46:43;4.47;;;0.70;;
54139;SDS011;40046;53.254;5.900;2023-04-24T12:49:10;3.67;;;0.95;;
54139;SDS011;40046;53.254;5.900;2023-04-24T12:51:36;3.65;;;0.55;;
54139;SDS011;40046;53.254;5.900;2023-04-24T12:54:02;7.30;;;1.67;;
54139;SDS011;40046;53.254;5.900;2023-04-24T12:56:28;5.43;;;0.90;;
54139;SDS011;40046;53.254;5.900;2023-04-24T12:58:55;4.75;;;0.70;;
54139;SDS011;40046;53.254;5.900;2023-04-24T13:01:21;6.88;;;1.13;;
54139;SDS011;40046;53.254;5.900;2023-04-24T13:03:48;4.72;;;1.13;;
54139;SDS011;40046;53.254;5.900;2023-04-24T13:06:14;6.20;;;1.60;;
54139;SDS011;40046;53.254;5.900;2023-04-24T13:08:40;6.72;;;1.52;;
54139;SDS011;40046;53.254;5.900;2023-04-24T13:11:06;8.73;;;1.70;;
54139;SDS011;40046;53.254;5.900;2023-04-24T13:13:32;10.88;;;2.47;;
54139;SDS011;40046;53.254;5.900;2023-04-24T13:15:58;14.55;;;2.53;;
54139;SDS011;40046;53.254;5.900;2023-04-24T13:18:25;13.30;;;3.00;;
54139;SDS011;40046;53.254;5.900;2023-04-24T13:20:51;11.13;;;3.60;;
54139;SDS011;40046;53.254;5.900;2023-04-24T13:23:17;10.05;;;3.30;;
54139;SDS011;40046;53.254;5.900;2023-04-24T13:25:43;19.05;;;4.97;;
54139;SDS011;40046;53.254;5.900;2023-04-24T13:28:09;16.88;;;3.67;;
54139;SDS011;40046;53.254;5.900;2023-04-24T13:30:35;12.60;;;2.92;;
54139;SDS011;40046;53.254;5.900;2023-04-24T13:33:01;12.45;;;2.63;;
54139;SDS011;40046;53.254;5.900;2023-04-24T13:35:28;9.07;;;2.55;;
54139;SDS011;40046;53.254;5.900;2023-04-24T13:37:54;9.45;;;2.67;;
54139;SDS011;40046;53.254;5.900;2023-04-24T13:40:20;16.13;;;3.00;;
54139;SDS011;40046;53.254;5.900;2023-04-24T13:42:46;14.95;;;2.25;;
54139;SDS011;40046;53.254;5.900;2023-04-24T13:45:12;5.53;;;2.33;;
54139;SDS011;40046;53.254;5.900;2023-04-24T13:47:39;12.90;;;2.75;;
54139;SDS011;40046;53.254;5.900;2023-04-24T13:50:07;13.20;;;3.72;;
54139;SDS011;40046;53.254;5.900;2023-04-24T13:52:33;14.02;;;2.83;;
54139;SDS011;40046;53.254;5.900;2023-04-24T13:55:00;10.75;;;3.53;;
54139;SDS011;40046;53.254;5.900;2023-04-24T13:57:26;10.80;;;3.15;;
54139;SDS011;40046;53.254;5.900;2023-04-24T13:59:53;9.40;;;3.05;;
54139;SDS011;40046;53.254;5.900;2023-04-24T14:02:21;12.75;;;2.95;;
54139;SDS011;40046;53.254;5.900;2023-04-24T14:04:47;10.95;;;2.25;;
54139;SDS011;40046;53.254;5.900;2023-04-24T14:07:13;10.27;;;2.83;;
54139;SDS011;40046;53.254;5.900;2023-04-24T14:09:39;10.77;;;2.15;;
54139;SDS011;40046;53.254;5.900;2023-04-24T14:12:05;11.07;;;3.15;;
54139;SDS011;40046;53.254;5.900;2023-04-24T14:14:32;10.82;;;2.60;;
54139;SDS011;40046;53.254;5.900;2023-04-24T14:16:59;9.38;;;2.50;;
54139;SDS011;40046;53.254;5.900;2023-04-24T14:19:25;6.28;;;2.30;;
54139;SDS011;40046;53.254;5.900;2023-04-24T14:21:51;13.20;;;2.65;;
54139;SDS011;40046;53.254;5.900;2023-04-24T14:24:18;10.50;;;2.00;;
54139;SDS011;40046;53.254;5.900;2023-04-24T14:26:45;9.43;;;2.53;;
54139;SDS011;40046;53.254;5.900;2023-04-24T14:29:11;10.18;;;2.30;;
54139;SDS011;40046;53.254;5.900;2023-04-24T14:31:37;20.65;;;5.57;;
54139;SDS011;40046;53.254;5.900;2023-04-24T14:34:03;9.07;;;2.47;;
54139;SDS011;40046;53.254;5.900;2023-04-24T14:36:29;10.02;;;2.60;;
54139;SDS011;40046;53.254;5.900;2023-04-24T14:38:56;10.23;;;2.15;;
54139;SDS011;40046;53.254;5.900;2023-04-24T14:41:22;9.27;;;2.45;;
54139;SDS011;40046;53.254;5.900;2023-04-24T14:43:48;10.93;;;2.65;;
54139;SDS011;40046;53.254;5.900;2023-04-24T14:46:15;10.85;;;2.40;;
54139;SDS011;40046;53.254;5.900;2023-04-24T14:48:41;13.35;;;3.30;;
54139;SDS011;40046;53.254;5.900;2023-04-24T14:51:07;12.23;;;2.60;;
54139;SDS011;40046;53.254;5.900;2023-04-24T14:53:33;12.32;;;2.55;;